Time;durP1;ratioP1;P1;durP2;ratioP2;P2;SDS_P1;SDS_P2;PMS_P1;PMS_P2;Temp;Humidity;BMP_temperature;BMP_pressure;BME280_temperature;BME280_humidity;BME280_pressure;Samples;Min_cycle;Max_cycle;Signal;HPM_P1;HPM_P2
2021/09/07 00:02:51;;;;;;;12.63;10.73;;;21.00;69.30;;;;;;10417422;28;20025;-57
2021/09/07 00:07:51;;;;;;;12.88;10.63;;;21.00;69.30;;;;;;10417369;28;20486;-57
2021/09/07 00:12:52;;;;;;;12.07;10.70;;;21.00;69.30;;;;;;10417690;28;20029;-57
2021/09/07 00:17:53;;;;;;;14.13;10.82;;;21.00;69.60;;;;;;10417105;28;20083;-57
2021/09/07 00:22:54;;;;;;;10.75;9.65;;;21.00;69.50;;;;;;10419439;28;20030;-57
2021/09/07 00:27:54;;;;;;;11.45;10.13;;;21.00;69.30;;;;;;10416593;28;20056;-57
2021/09/07 00:32:55;;;;;;;12.68;10.20;;;21.00;69.20;;;;;;10416472;28;20034;-56
2021/09/07 00:37:57;;;;;;;11.68;10.43;;;21.00;69.10;;;;;;10416510;28;20040;-56
2021/09/07 00:42:58;;;;;;;12.82;10.38;;;21.00;69.20;;;;;;10413825;28;20406;-57
2021/09/07 00:47:58;;;;;;;14.45;11.43;;;20.90;69.10;;;;;;10416059;28;20029;-57
2021/09/07 00:52:59;;;;;;;13.65;10.40;;;21.00;69.10;;;;;;10415545;28;20037;-57
2021/09/07 00:58:04;;;;;;;14.13;10.40;;;21.00;69.00;;;;;;10415691;28;20056;-57
2021/09/07 01:03:04;;;;;;;13.75;11.27;;;20.90;68.90;;;;;;10415037;28;20065;-57
2021/09/07 01:08:05;;;;;;;13.88;10.73;;;20.90;68.90;;;;;;10415435;28;20179;-56
2021/09/07 01:13:06;;;;;;;11.35;10.15;;;20.90;68.90;;;;;;10414822;28;20033;-57
2021/09/07 01:18:06;;;;;;;15.85;11.23;;;20.90;68.90;;;;;;10414764;28;20033;-57
2021/09/07 01:23:07;;;;;;;13.55;9.93;;;21.00;69.00;;;;;;10417487;28;20091;-56
2021/09/07 01:28:12;;;;;;;11.80;10.25;;;20.90;68.90;;;;;;10413852;28;20053;-57
2021/09/07 01:33:13;;;;;;;14.10;11.10;;;20.90;68.90;;;;;;10409401;28;20116;-57
2021/09/07 01:38:14;;;;;;;12.75;11.07;;;20.90;68.90;;;;;;10412947;28;20112;-57
2021/09/07 01:43:15;;;;;;;13.00;11.07;;;20.90;71.90;;;;;;10413910;28;20517;-57
2021/09/07 01:48:18;;;;;;;12.80;10.82;;;21.00;74.20;;;;;;10412670;28;20454;-57
2021/09/07 01:53:19;;;;;;;12.90;10.88;;;21.00;73.60;;;;;;10412445;28;20095;-56
2021/09/07 01:58:20;;;;;;;12.73;10.68;;;21.00;73.30;;;;;;10413945;28;20437;-57
2021/09/07 02:03:21;;;;;;;13.68;10.63;;;21.00;72.90;;;;;;10413575;28;20159;-57
2021/09/07 02:08:22;;;;;;;12.73;9.48;;;21.00;72.70;;;;;;10413720;28;20033;-57
2021/09/07 02:13:22;;;;;;;12.13;10.55;;;21.00;72.60;;;;;;10413450;28;20033;-57
2021/09/07 02:18:23;;;;;;;12.63;10.48;;;21.00;72.40;;;;;;10415764;28;20449;-57
2021/09/07 02:23:23;;;;;;;11.65;10.35;;;21.00;72.30;;;;;;10413706;28;20484;-57
2021/09/07 02:28:24;;;;;;;12.63;10.27;;;21.00;72.10;;;;;;10413662;28;20064;-57
2021/09/07 02:33:25;;;;;;;11.95;10.43;;;21.00;72.00;;;;;;10427944;28;20108;-57
2021/09/07 02:38:26;;;;;;;11.73;10.05;;;21.00;71.80;;;;;;10413281;28;20104;-57
2021/09/07 02:43:27;;;;;;;12.85;10.30;;;21.00;71.60;;;;;;10412425;28;20046;-57
2021/09/07 02:48:28;;;;;;;13.73;11.10;;;21.00;71.60;;;;;;10413223;28;20348;-57
2021/09/07 02:53:28;;;;;;;12.60;10.75;;;21.00;71.60;;;;;;10412674;28;20033;-58
2021/09/07 02:58:29;;;;;;;12.30;10.77;;;21.00;71.40;;;;;;10412778;28;20100;-57
2021/09/07 03:03:30;;;;;;;13.75;10.95;;;20.90;71.20;;;;;;10411592;28;20068;-57
2021/09/07 03:08:32;;;;;;;13.25;10.98;;;20.90;71.10;;;;;;10420062;28;20037;-57
2021/09/07 03:13:32;;;;;;;12.45;10.32;;;20.90;71.10;;;;;;10419908;28;20033;-57
2021/09/07 03:18:33;;;;;;;11.63;10.40;;;20.90;70.90;;;;;;10420816;28;20036;-57
2021/09/07 03:23:35;;;;;;;11.38;10.18;;;20.90;70.90;;;;;;10418048;28;20080;-57
2021/09/07 03:28:36;;;;;;;13.80;11.10;;;20.90;70.90;;;;;;10418994;28;20068;-57
2021/09/07 03:33:36;;;;;;;12.25;10.70;;;20.90;70.90;;;;;;10418096;28;20060;-56
2021/09/07 03:38:37;;;;;;;12.75;10.27;;;20.90;70.90;;;;;;10418729;28;20083;-57
2021/09/07 03:43:39;;;;;;;12.98;9.70;;;20.90;70.90;;;;;;10418231;28;20161;-56
2021/09/07 03:48:40;;;;;;;11.98;10.32;;;20.90;70.90;;;;;;10418308;28;20064;-55
2021/09/07 03:53:41;;;;;;;12.18;10.02;;;20.90;70.80;;;;;;10418169;28;20029;-57
2021/09/07 03:58:42;;;;;;;11.02;9.70;;;20.90;70.70;;;;;;10417327;28;20069;-57
2021/09/07 04:03:42;;;;;;;12.85;10.23;;;20.90;70.70;;;;;;10417249;28;20454;-57
2021/09/07 04:08:43;;;;;;;12.27;10.00;;;20.90;70.60;;;;;;10417808;28;20505;-57
2021/09/07 04:13:44;;;;;;;12.13;10.73;;;20.90;70.60;;;;;;10417404;28;20065;-57
2021/09/07 04:18:44;;;;;;;13.73;10.43;;;20.90;70.50;;;;;;10419668;28;20029;-57
2021/09/07 04:23:45;;;;;;;10.73;9.32;;;20.90;70.40;;;;;;10416750;28;20395;-57
2021/09/07 04:28:45;;;;;;;12.07;9.57;;;20.80;70.40;;;;;;10416975;28;20107;-57
2021/09/07 04:33:46;;;;;;;10.15;8.68;;;20.80;70.40;;;;;;10414874;28;20581;-57
2021/09/07 04:38:47;;;;;;;11.38;9.23;;;20.90;70.50;;;;;;10383827;28;20067;-57
2021/09/07 04:43:48;;;;;;;13.20;10.07;;;20.80;70.40;;;;;;10410078;28;20084;-57
2021/09/07 04:48:54;;;;;;;12.98;10.38;;;20.80;70.30;;;;;;10415456;28;20068;-57
2021/09/07 04:53:57;;;;;;;11.40;9.50;;;20.80;70.30;;;;;;10415599;28;20063;-56
2021/09/07 04:58:58;;;;;;;11.43;9.23;;;20.80;70.30;;;;;;10413319;28;20041;-57
2021/09/07 05:03:58;;;;;;;11.70;10.20;;;20.80;71.50;;;;;;10413488;28;20061;-56
2021/09/07 05:08:59;;;;;;;13.20;10.00;;;20.90;71.20;;;;;;10414620;28;20100;-57
2021/09/07 05:14:00;;;;;;;15.75;10.30;;;20.90;71.10;;;;;;10412819;28;20025;-54
2021/09/07 05:19:00;;;;;;;14.85;10.38;;;20.90;71.60;;;;;;10415788;28;20500;-50
2021/09/07 05:24:01;;;;;;;18.58;10.75;;;20.90;72.10;;;;;;10413916;28;20385;-57
2021/09/07 05:29:02;;;;;;;16.23;10.52;;;20.90;72.10;;;;;;10413378;28;20045;-57
2021/09/07 05:34:02;;;;;;;20.27;10.32;;;20.90;71.90;;;;;;10414259;28;20466;-57
2021/09/07 05:39:03;;;;;;;18.50;10.60;;;20.90;71.70;;;;;;10413734;28;20040;-57
2021/09/07 05:44:04;;;;;;;15.75;10.27;;;20.90;71.60;;;;;;10410476;28;20052;-56
2021/09/07 05:49:04;;;;;;;17.10;11.10;;;20.90;71.50;;;;;;10412952;28;20129;-56
2021/09/07 05:54:05;;;;;;;27.05;11.82;;;20.90;71.50;;;;;;10412988;28;20068;-54
2021/09/07 05:59:06;;;;;;;20.95;10.90;;;20.90;71.50;;;;;;10413029;28;20029;-55
2021/09/07 06:04:07;;;;;;;19.15;10.65;;;20.90;71.30;;;;;;10411150;28;20443;-55
2021/09/07 06:09:07;;;;;;;23.08;11.57;;;20.90;71.50;;;;;;10411140;28;20125;-56
2021/09/07 06:14:08;;;;;;;15.70;9.80;;;20.90;70.80;;;;;;10412365;28;20144;-54
2021/09/07 06:19:09;;;;;;;16.23;9.82;;;20.90;69.80;;;;;;10411262;28;20492;-55
2021/09/07 06:24:09;;;;;;;19.30;10.35;;;20.80;68.90;;;;;;10349453;28;20042;-57
2021/09/07 06:29:10;;;;;;;20.27;10.77;;;20.90;68.40;;;;;;10412294;28;20201;-56
2021/09/07 06:34:11;;;;;;;14.73;10.95;;;20.80;67.50;;;;;;10411574;28;20060;-56
2021/09/07 06:39:11;;;;;;;15.98;9.80;;;20.80;67.90;;;;;;10413626;28;20042;-56
2021/09/07 06:44:13;;;;;;;12.15;9.20;;;20.80;67.60;;;;;;10420572;28;20458;-56
2021/09/07 06:49:13;;;;;;;15.13;9.95;;;20.80;67.00;;;;;;10419160;28;20390;-56
2021/09/07 06:54:14;;;;;;;15.30;10.65;;;20.80;67.30;;;;;;10418858;28;20081;-56
2021/09/07 06:59:15;;;;;;;14.50;10.88;;;20.80;66.90;;;;;;10418355;28;20366;-56
2021/09/07 07:04:15;;;;;;;17.77;11.38;;;20.80;67.20;;;;;;10419798;28;20053;-53
2021/09/07 07:09:16;;;;;;;17.10;10.68;;;20.80;68.80;;;;;;10419434;28;20139;-53
2021/09/07 07:14:21;;;;;;;14.98;10.10;;;20.80;69.10;;;;;;10418997;28;20040;-53
2021/09/07 07:19:21;;;;;;;13.38;10.57;;;20.80;68.60;;;;;;10419173;28;20076;-54
2021/09/07 07:24:22;;;;;;;14.15;10.77;;;20.80;68.70;;;;;;10418101;28;20468;-55
2021/09/07 07:29:23;;;;;;;15.70;10.25;;;20.80;68.80;;;;;;10418421;28;20124;-55
2021/09/07 07:34:23;;;;;;;12.70;9.35;;;20.80;68.90;;;;;;10415871;28;20040;-52
2021/09/07 07:39:24;;;;;;;12.98;9.50;;;20.80;68.90;;;;;;10417391;28;20060;-55
2021/09/07 07:44:25;;;;;;;13.68;9.93;;;20.80;69.00;;;;;;10417618;28;20033;-55
2021/09/07 07:49:26;;;;;;;13.10;10.15;;;20.80;69.10;;;;;;10417484;28;20079;-56
2021/09/07 07:54:26;;;;;;;18.48;9.88;;;20.80;69.80;;;;;;10417446;28;20033;-54
2021/09/07 07:59:27;;;;;;;11.55;9.55;;;20.80;69.30;;;;;;10416538;28;20063;-55
2021/09/07 08:04:28;;;;;;;14.15;10.35;;;20.80;69.40;;;;;;10417953;28;20037;-55
2021/09/07 08:09:31;;;;;;;13.82;10.25;;;20.80;69.30;;;;;;10417212;28;20104;-55
2021/09/07 08:14:31;;;;;;;16.48;10.30;;;20.80;70.80;;;;;;10416278;28;20470;-56
2021/09/07 08:19:32;;;;;;;14.25;10.48;;;20.80;71.00;;;;;;10418007;28;20033;-55
2021/09/07 08:24:33;;;;;;;12.40;9.93;;;20.80;70.80;;;;;;10416819;28;20457;-54
2021/09/07 08:29:34;;;;;;;17.20;12.98;;;20.80;69.70;;;;;;10415185;28;20053;-53
2021/09/07 08:34:34;;;;;;;15.00;11.68;;;20.80;69.70;;;;;;10416123;28;20125;-59
2021/09/07 08:39:35;;;;;;;12.07;9.75;;;20.80;69.80;;;;;;10414759;28;20076;-55
2021/09/07 08:44:36;;;;;;;14.70;9.85;;;20.80;70.80;;;;;;10412722;28;20095;-54
2021/09/07 08:49:37;;;;;;;15.07;11.50;;;20.90;70.90;;;;;;10412152;28;20033;-56
2021/09/07 08:54:38;;;;;;;14.02;11.38;;;20.90;70.30;;;;;;10414386;28;20033;-55
2021/09/07 08:59:38;;;;;;;12.48;9.98;;;20.80;70.00;;;;;;10413179;28;20033;-55
2021/09/07 09:04:42;;;;;;;11.38;9.73;;;20.90;70.10;;;;;;10411396;28;20033;-54
2021/09/07 09:09:45;;;;;;;11.38;8.93;;;20.80;70.20;;;;;;10412408;28;20029;-54
2021/09/07 09:14:47;;;;;;;11.55;9.00;;;20.90;70.30;;;;;;10414311;28;20026;-53
2021/09/07 09:19:56;;;;;;;12.75;9.65;;;20.90;70.20;;;;;;10416072;28;20069;-54
2021/09/07 09:24:57;;;;;;;11.35;9.45;;;20.90;70.30;;;;;;10415120;28;20501;-55
2021/09/07 09:29:58;;;;;;;12.43;9.05;;;20.90;70.30;;;;;;10414405;28;20033;-55
2021/09/07 09:35:02;;;;;;;10.18;7.88;;;20.90;70.30;;;;;;10414385;28;20049;-53
2021/09/07 09:40:08;;;;;;;13.43;8.85;;;20.90;70.40;;;;;;10414169;28;20050;-56
2021/09/07 09:45:09;;;;;;;14.40;9.68;;;21.00;70.50;;;;;;10414310;28;20053;-54
2021/09/07 09:50:13;;;;;;;11.05;8.65;;;21.00;70.40;;;;;;10413675;28;20030;-55
2021/09/07 09:55:16;;;;;;;12.13;8.55;;;21.00;70.40;;;;;;10414444;28;20036;-56
2021/09/07 10:00:18;;;;;;;15.20;9.00;;;21.00;70.30;;;;;;10413767;28;20104;-55
2021/09/07 10:05:18;;;;;;;9.57;8.55;;;21.00;70.30;;;;;;10412486;28;20034;-55
2021/09/07 10:10:21;;;;;;;11.07;8.27;;;21.10;70.30;;;;;;10413521;28;20100;-56
2021/09/07 10:15:58;;;;;;;10.65;9.05;;;21.10;70.30;;;;;;10431952;28;20041;-55
2021/09/07 10:20:54;;;;;;;10.57;8.38;;;21.10;70.20;;;;;;10431044;28;20034;-55
2021/09/07 10:26:01;;;;;;;10.00;8.30;;;21.10;70.20;;;;;;10421854;28;20132;-54
2021/09/07 10:31:11;;;;;;;10.60;8.90;;;21.20;70.20;;;;;;10419806;28;20386;-55
2021/09/07 10:36:13;;;;;;;10.77;8.40;;;21.20;70.20;;;;;;10421226;28;20034;-53
2021/09/07 10:41:28;;;;;;;10.60;7.93;;;21.20;70.20;;;;;;10419528;28;20045;-54
2021/09/07 10:46:58;;;;;;;10.25;8.80;;;21.30;70.20;;;;;;10420886;28;20032;-55
2021/09/07 10:52:04;;;;;;;12.55;9.60;;;21.30;70.10;;;;;;10421008;28;20045;-55
2021/09/07 10:57:06;;;;;;;11.18;8.13;;;21.30;70.10;;;;;;10420379;28;20069;-56
2021/09/07 11:02:42;;;;;;;9.50;7.78;;;21.30;70.00;;;;;;10432603;28;20041;-56
2021/09/07 11:07:45;;;;;;;12.30;8.82;;;21.40;70.00;;;;;;10410944;28;20030;-57
2021/09/07 11:12:52;;;;;;;14.77;8.98;;;21.40;70.00;;;;;;10414471;28;20030;-57
2021/09/07 11:17:54;;;;;;;9.73;8.73;;;21.40;70.00;;;;;;10402107;28;20029;-57
2021/09/07 11:22:57;;;;;;;11.82;9.25;;;21.40;69.90;;;;;;10416551;28;20033;-57
2021/09/07 11:28:01;;;;;;;11.40;9.00;;;21.50;69.90;;;;;;10416383;28;20158;-56
2021/09/07 11:33:21;;;;;;;11.93;8.98;;;21.50;69.70;;;;;;10418937;28;20534;-57
2021/09/07 11:38:25;;;;;;;13.60;10.55;;;21.50;69.70;;;;;;10417525;28;20091;-56
2021/09/07 11:43:32;;;;;;;10.88;8.45;;;21.50;69.50;;;;;;10416903;28;20042;-55
2021/09/07 11:48:33;;;;;;;10.60;8.32;;;21.60;69.60;;;;;;10417240;28;20033;-56
2021/09/07 11:53:34;;;;;;;12.18;9.15;;;21.60;69.50;;;;;;10413122;28;20032;-57
2021/09/07 11:58:40;;;;;;;11.13;8.65;;;21.60;69.50;;;;;;10417075;28;20060;-55
2021/09/07 12:03:51;;;;;;;10.82;8.43;;;21.60;69.50;;;;;;10414884;28;20037;-55
2021/09/07 12:08:52;;;;;;;11.38;8.63;;;21.60;69.50;;;;;;10407198;28;20076;-57
2021/09/07 12:14:14;;;;;;;12.10;9.40;;;21.70;69.60;;;;;;10416997;28;20104;-55
2021/09/07 12:19:44;;;;;;;11.15;8.73;;;21.70;69.50;;;;;;10414639;28;20399;-55
2021/09/07 12:25:15;;;;;;;13.05;9.05;;;21.70;69.60;;;;;;10415426;28;20038;-56
2021/09/07 12:30:20;;;;;;;18.23;8.75;;;21.70;69.60;;;;;;10439556;28;20029;-53
2021/09/07 12:35:50;;;;;;;14.32;10.35;;;21.70;69.70;;;;;;10415335;28;20134;-54
2021/09/07 12:40:58;;;;;;;21.83;8.95;;;21.70;69.70;;;;;;10431334;28;20049;-55
2021/09/07 12:46:03;;;;;;;12.27;9.23;;;21.80;69.80;;;;;;10414004;28;20029;-54
2021/09/07 12:51:04;;;;;;;16.00;9.52;;;21.80;69.80;;;;;;10398510;28;20040;-54
2021/09/07 12:56:07;;;;;;;12.23;8.52;;;21.70;69.80;;;;;;10412861;28;20076;-53
2021/09/07 13:01:09;;;;;;;15.25;9.88;;;21.80;69.80;;;;;;10412620;28;20425;-55
2021/09/07 13:06:10;;;;;;;11.50;8.93;;;21.80;69.80;;;;;;10415076;28;20033;-55
2021/09/07 13:11:12;;;;;;;11.73;9.02;;;21.80;69.80;;;;;;10414763;28;20029;-55
2021/09/07 13:16:15;;;;;;;14.55;9.57;;;21.80;69.80;;;;;;10413910;28;20491;-54
2021/09/07 13:21:17;;;;;;;13.52;9.18;;;21.80;69.80;;;;;;10417434;28;20021;-54
2021/09/07 13:26:17;;;;;;;10.75;9.38;;;21.80;69.70;;;;;;10413387;28;20482;-56
2021/09/07 13:31:18;;;;;;;10.77;8.90;;;21.80;69.80;;;;;;10414799;28;20112;-54
2021/09/07 13:36:19;;;;;;;11.05;8.45;;;21.80;69.70;;;;;;10414443;28;20039;-55
2021/09/07 13:41:20;;;;;;;10.07;8.63;;;21.80;69.80;;;;;;10413715;28;20045;-54
2021/09/07 13:46:20;;;;;;;11.02;8.73;;;21.80;69.80;;;;;;10413989;28;20060;-55
2021/09/07 13:51:21;;;;;;;10.90;9.05;;;21.90;69.80;;;;;;10413561;28;20428;-54
2021/09/07 13:56:21;;;;;;;11.10;8.68;;;21.90;69.80;;;;;;10412663;28;20033;-53
2021/09/07 14:01:23;;;;;;;9.73;8.73;;;21.90;69.80;;;;;;10413623;28;20060;-55
2021/09/07 14:06:23;;;;;;;11.80;9.10;;;21.90;69.80;;;;;;10413657;28;20497;-55
2021/09/07 14:11:24;;;;;;;9.90;8.27;;;21.90;69.80;;;;;;10411914;28;20045;-54
2021/09/07 14:16:25;;;;;;;10.43;8.35;;;21.90;69.80;;;;;;10412890;28;20029;-55
2021/09/07 14:21:25;;;;;;;9.85;8.35;;;21.90;69.80;;;;;;10414425;28;20042;-55
2021/09/07 14:26:26;;;;;;;9.93;8.25;;;21.90;69.70;;;;;;10413317;28;20104;-54
2021/09/07 14:31:27;;;;;;;9.50;7.72;;;21.80;69.60;;;;;;10413288;28;20029;-54
2021/09/07 14:36:27;;;;;;;10.02;8.35;;;21.90;69.80;;;;;;10413654;28;20383;-54
2021/09/07 14:41:28;;;;;;;10.85;8.65;;;21.90;69.80;;;;;;10411263;28;20187;-55
2021/09/07 14:46:29;;;;;;;8.73;7.72;;;21.90;69.70;;;;;;10412811;28;20064;-54
2021/09/07 14:51:30;;;;;;;9.13;8.23;;;21.80;69.60;;;;;;10411645;28;20080;-54
2021/09/07 14:56:30;;;;;;;9.90;7.90;;;21.90;69.70;;;;;;10403557;28;20041;-53
2021/09/07 15:01:31;;;;;;;9.32;8.15;;;21.90;69.60;;;;;;10414500;28;20026;-52
2021/09/07 15:06:32;;;;;;;11.02;9.05;;;21.90;69.70;;;;;;10418574;28;20496;-53
2021/09/07 15:11:36;;;;;;;8.38;7.18;;;21.90;69.50;;;;;;10419581;28;20065;-54
2021/09/07 15:16:37;;;;;;;10.13;7.72;;;21.80;69.50;;;;;;10419967;28;20346;-53
2021/09/07 15:21:38;;;;;;;11.82;8.98;;;21.90;69.50;;;;;;10422391;28;20029;-54
2021/09/07 15:26:38;;;;;;;9.73;8.00;;;21.80;69.50;;;;;;10419303;28;20034;-53
2021/09/07 15:31:39;;;;;;;9.85;8.85;;;21.90;69.50;;;;;;10417724;28;20095;-54
2021/09/07 15:36:44;;;;;;;11.10;7.70;;;21.80;69.50;;;;;;10419222;28;20048;-55
2021/09/07 15:41:46;;;;;;;9.60;7.88;;;21.80;69.40;;;;;;10417064;28;20129;-54
2021/09/07 15:46:47;;;;;;;9.98;7.97;;;21.80;69.40;;;;;;10401112;28;20481;-54
2021/09/07 15:51:48;;;;;;;9.13;7.70;;;21.80;69.50;;;;;;10413169;28;20061;-53
2021/09/07 15:56:48;;;;;;;10.27;8.57;;;21.80;69.30;;;;;;10418112;28;20504;-54
2021/09/07 16:01:49;;;;;;;11.02;8.70;;;21.80;69.40;;;;;;10417875;28;20163;-52
2021/09/07 16:06:50;;;;;;;10.43;8.27;;;21.80;69.40;;;;;;10417576;28;20060;-51
2021/09/07 16:11:56;;;;;;;10.25;8.40;;;21.80;69.30;;;;;;10416746;28;20100;-54
2021/09/07 16:16:57;;;;;;;32.47;17.58;;;21.90;69.70;;;;;;10416750;28;20068;-55
2021/09/07 16:21:58;;;;;;;28.63;13.70;;;21.90;74.00;;;;;;10419736;28;20121;-54
2021/09/07 16:27:00;;;;;;;18.98;10.55;;;21.90;71.00;;;;;;10415813;28;20104;-52
2021/09/07 16:32:01;;;;;;;14.60;8.35;;;21.90;69.70;;;;;;10413906;28;20445;-55
2021/09/07 16:37:02;;;;;;;10.43;8.82;;;21.90;69.30;;;;;;10414735;28;20115;-55
2021/09/07 16:42:03;;;;;;;13.40;8.93;;;21.90;69.00;;;;;;10408651;28;20050;-55
2021/09/07 16:47:04;;;;;;;12.38;8.77;;;21.90;68.80;;;;;;10416087;28;20390;-54
2021/09/07 16:52:06;;;;;;;10.77;7.60;;;21.90;68.70;;;;;;10415140;28;20045;-56
2021/09/07 16:57:07;;;;;;;10.50;8.00;;;21.90;68.70;;;;;;10415347;28;20036;-56
2021/09/07 17:02:08;;;;;;;10.52;7.90;;;21.90;68.60;;;;;;10415211;28;20069;-53
2021/09/07 17:07:15;;;;;;;9.13;7.70;;;21.90;68.70;;;;;;10415214;28;20029;-52
2021/09/07 17:12:16;;;;;;;9.85;6.95;;;21.90;68.80;;;;;;10413628;28;20048;-55
2021/09/07 17:17:20;;;;;;;15.60;9.00;;;21.90;68.90;;;;;;10414484;28;20071;-54
2021/09/07 17:22:20;;;;;;;11.63;8.75;;;21.90;69.10;;;;;;10416819;28;20034;-53
2021/09/07 17:27:21;;;;;;;11.00;8.10;;;21.80;68.80;;;;;;10414301;28;20474;-51
2021/09/07 17:43:07;;;;;;;33.17;9.27;;;21.80;69.00;;;;;;10395617;28;20045;-55
2021/09/07 17:48:10;;;;;;;18.67;8.60;;;21.90;69.30;;;;;;10413022;28;20103;-55
2021/09/07 17:53:11;;;;;;;17.50;11.13;;;21.80;69.10;;;;;;10414147;28;20373;-54
2021/09/07 17:58:11;;;;;;;18.13;10.00;;;21.90;70.60;;;;;;10428060;28;20052;-55
2021/09/07 18:03:12;;;;;;;16.42;9.70;;;21.90;70.90;;;;;;10426489;28;20065;-55
2021/09/07 18:08:13;;;;;;;14.25;9.23;;;21.90;70.70;;;;;;10419928;28;20030;-53
2021/09/07 18:13:14;;;;;;;13.10;9.70;;;21.90;70.80;;;;;;10411393;28;20708;-54
2021/09/07 18:18:18;;;;;;;14.07;9.82;;;21.90;71.00;;;;;;10410236;28;20451;-55
2021/09/07 18:23:26;;;;;;;13.00;9.00;;;21.90;70.90;;;;;;10412007;28;20105;-53
2021/09/07 18:28:27;;;;;;;15.98;9.68;;;21.90;70.80;;;;;;10411473;28;20022;-54
2021/09/07 18:33:27;;;;;;;12.13;8.05;;;21.90;71.00;;;;;;10411424;28;20033;-55
2021/09/07 18:38:28;;;;;;;14.23;9.13;;;21.90;70.00;;;;;;10419227;28;20037;-55
2021/09/07 18:43:29;;;;;;;13.63;8.82;;;21.90;70.90;;;;;;10408615;28;20481;-53
2021/09/07 18:48:29;;;;;;;13.13;9.43;;;21.90;70.80;;;;;;10419177;28;20116;-54
2021/09/07 18:53:30;;;;;;;13.60;8.85;;;21.90;71.40;;;;;;10419616;28;20061;-54
2021/09/07 18:58:31;;;;;;;14.07;9.38;;;21.90;71.50;;;;;;10419622;28;20456;-57
2021/09/07 19:03:33;;;;;;;15.40;8.75;;;21.90;71.30;;;;;;10417891;28;20037;-56
2021/09/07 19:08:34;;;;;;;16.00;9.90;;;21.90;71.50;;;;;;10397097;28;20036;-57
2021/09/07 19:13:35;;;;;;;14.68;8.30;;;21.90;71.70;;;;;;10405949;28;20450;-57
2021/09/07 19:18:37;;;;;;;16.23;8.95;;;21.90;70.90;;;;;;10406577;28;20017;-58
2021/09/07 19:23:38;;;;;;;13.02;8.27;;;21.90;71.10;;;;;;10405016;28;20069;-57
2021/09/07 19:28:40;;;;;;;13.38;8.00;;;21.90;71.20;;;;;;10408473;28;20026;-57
2021/09/07 19:33:40;;;;;;;14.75;8.25;;;21.90;71.20;;;;;;10391010;28;20068;-57
2021/09/07 19:38:41;;;;;;;10.27;7.53;;;21.90;71.90;;;;;;10404858;28;20585;-57
2021/09/07 19:43:45;;;;;;;11.80;7.85;;;21.90;71.30;;;;;;10411515;28;20510;-57
2021/09/07 19:48:46;;;;;;;14.43;8.90;;;21.90;71.20;;;;;;10412763;28;20032;-58
2021/09/07 19:53:47;;;;;;;13.27;8.43;;;21.90;71.30;;;;;;10415191;28;20484;-58
2021/09/07 19:58:47;;;;;;;12.82;8.45;;;21.90;71.00;;;;;;10416737;28;20040;-57
2021/09/07 20:03:48;;;;;;;14.90;7.80;;;21.90;70.90;;;;;;10418079;28;20116;-57
2021/09/07 20:08:49;;;;;;;12.52;8.23;;;21.90;70.90;;;;;;10415532;28;20030;-57
2021/09/07 20:13:51;;;;;;;14.00;8.73;;;21.90;70.90;;;;;;10415134;28;20499;-58
2021/09/07 20:18:52;;;;;;;10.98;8.88;;;21.90;70.80;;;;;;10418713;28;20383;-57
2021/09/07 20:23:52;;;;;;;14.15;8.57;;;21.90;70.80;;;;;;10414878;28;20049;-57
2021/09/07 20:28:53;;;;;;;11.30;9.35;;;21.90;70.70;;;;;;10417103;28;20064;-57
2021/09/07 20:33:54;;;;;;;10.32;9.07;;;21.90;70.60;;;;;;10410747;28;20040;-58
2021/09/07 20:38:54;;;;;;;12.63;9.38;;;21.90;70.60;;;;;;10416818;28;20492;-58
2021/09/07 20:43:55;;;;;;;10.88;8.95;;;21.90;70.60;;;;;;10415289;28;20081;-58
2021/09/07 20:48:56;;;;;;;13.27;9.15;;;21.90;70.50;;;;;;10416318;28;20389;-58
2021/09/07 20:53:57;;;;;;;9.45;8.43;;;21.80;70.50;;;;;;10416108;28;20052;-58
2021/09/07 20:58:58;;;;;;;11.63;8.68;;;21.90;70.50;;;;;;10415223;28;20067;-57
2021/09/07 21:03:59;;;;;;;11.57;8.73;;;21.80;70.40;;;;;;10415657;28;20119;-57
2021/09/07 21:08:59;;;;;;;11.13;8.82;;;21.80;70.40;;;;;;10415415;28;20116;-58
2021/09/07 21:14:00;;;;;;;9.98;8.02;;;21.90;70.30;;;;;;10414906;28;20056;-57
2021/09/07 21:19:01;;;;;;;9.65;7.60;;;21.80;70.20;;;;;;10417736;28;20051;-56
2021/09/07 21:24:02;;;;;;;11.75;7.93;;;21.80;70.20;;;;;;10415162;28;20036;-57
2021/09/07 21:29:05;;;;;;;10.75;9.30;;;21.80;70.20;;;;;;10414670;28;20029;-58
2021/09/07 21:34:06;;;;;;;12.32;9.85;;;21.80;70.20;;;;;;10413534;28;20029;-58
2021/09/07 21:39:06;;;;;;;9.75;8.32;;;21.80;70.20;;;;;;10414520;28;20041;-57
2021/09/07 21:44:09;;;;;;;10.02;8.65;;;21.80;70.10;;;;;;10414661;28;20125;-58
2021/09/07 21:49:10;;;;;;;10.63;8.63;;;21.80;70.10;;;;;;10414012;28;20033;-57
2021/09/07 21:54:10;;;;;;;10.00;7.85;;;21.80;70.10;;;;;;10414175;28;20053;-57
2021/09/07 21:59:11;;;;;;;9.63;7.68;;;21.80;70.10;;;;;;10412851;28;20112;-58
2021/09/07 22:04:12;;;;;;;10.15;8.25;;;21.80;70.00;;;;;;10413566;28;20033;-58
2021/09/07 22:09:12;;;;;;;9.35;7.97;;;21.80;70.00;;;;;;10415832;28;20057;-58
2021/09/07 22:14:13;;;;;;;10.82;8.52;;;21.80;70.00;;;;;;10422448;28;20037;-58
2021/09/07 22:19:14;;;;;;;9.23;7.82;;;21.80;70.00;;;;;;10424623;28;20041;-58
2021/09/07 22:24:15;;;;;;;11.48;8.93;;;21.80;70.00;;;;;;10421304;28;20482;-57
2021/09/07 22:29:15;;;;;;;10.05;7.93;;;21.70;69.90;;;;;;10421026;28;20029;-57
2021/09/07 22:34:16;;;;;;;11.20;9.02;;;21.70;70.00;;;;;;10419508;28;20474;-58
2021/09/07 22:39:18;;;;;;;10.35;8.15;;;21.70;69.90;;;;;;10421157;28;20022;-56
2021/09/07 22:44:19;;;;;;;8.85;7.68;;;21.70;69.80;;;;;;10420023;28;20144;-57
2021/09/07 22:49:19;;;;;;;10.80;7.85;;;21.70;69.80;;;;;;10420986;28;20493;-57
2021/09/07 22:54:20;;;;;;;9.43;8.02;;;21.70;69.80;;;;;;10434071;28;20120;-57
2021/09/07 22:59:21;;;;;;;10.80;8.52;;;21.70;69.70;;;;;;10419946;28;20038;-56
2021/09/07 23:04:21;;;;;;;9.30;8.00;;;21.70;69.80;;;;;;10418746;28;20525;-57
2021/09/07 23:09:22;;;;;;;11.02;8.32;;;21.70;69.70;;;;;;10419537;28;20087;-57
2021/09/07 23:14:23;;;;;;;11.93;9.10;;;21.70;69.70;;;;;;10419387;28;20108;-56
2021/09/07 23:19:23;;;;;;;8.82;7.55;;;21.70;69.70;;;;;;10419314;28;20549;-57
2021/09/07 23:24:24;;;;;;;10.52;8.60;;;21.70;69.60;;;;;;10417994;28;20064;-57
2021/09/07 23:29:25;;;;;;;8.45;7.45;;;21.70;69.60;;;;;;10418833;28;20053;-57
2021/09/07 23:34:26;;;;;;;8.73;7.82;;;21.70;69.60;;;;;;10419312;28;20029;-57
2021/09/07 23:39:27;;;;;;;9.13;8.07;;;21.70;69.60;;;;;;10419188;28;20033;-57
2021/09/07 23:44:27;;;;;;;10.07;8.73;;;21.70;69.60;;;;;;10418752;28;20034;-58
2021/09/07 23:49:28;;;;;;;10.15;8.32;;;21.70;69.50;;;;;;10418805;28;20494;-57
2021/09/07 23:54:29;;;;;;;9.23;8.23;;;21.70;69.50;;;;;;10417269;28;20038;-58
2021/09/07 23:59:30;;;;;;;9.13;8.23;;;21.60;69.40;;;;;;10418305;28;20112;-57
